This is the latest recevied weather packets stored in our database for station/object KD7AWQ. If no packets are shown the sender has not sent any weather packets the latest 10 day(s).
| Time | Temp. | Humidity | Pressure | Rain* | Wind** | Luminosity | Snow |
|---|---|---|---|---|---|---|---|
| 1777992331 | 12.22° C | 85% | 1181.8 hPa | 0 mm | - | 155 W/m² | - |
| 1777992028 | 12.22° C | 86% | 1181.4 hPa | 0 mm | - | 72 W/m² | - |
| 1777991726 | 12.22° C | 85% | 1181.5 hPa | 1.27 mm | - | 88 W/m² | - |
| 1777991422 | 11.67° C | 90% | 1181.9 hPa | 1.27 mm | - | 103 W/m² | - |
| 1777991120 | 11.67° C | 91% | 1181.8 hPa | 0 mm | - | 97 W/m² | - |
| 1777990817 | 11.11° C | 92% | 1182.1 hPa | 0 mm | - | 98 W/m² | - |
| 1777990514 | 11.11° C | 93% | 1181.9 hPa | 0 mm | - | 60 W/m² | - |
| 1777989908 | 11.11° C | 94% | 1181.6 hPa | 0 mm | - | 48 W/m² | - |
| 1777989604 | 11.11° C | 94% | 1181.8 hPa | 0 mm | - | 44 W/m² | - |
| 1777989301 | 10.56° C | 94% | 1181.5 hPa | 0 mm | - | 35 W/m² | - |
| 1777988997 | 10.56° C | 94% | 1181.8 hPa | 0 mm | - | 71 W/m² | - |
| 1777988693 | 10.56° C | 94% | 1181.4 hPa | 0 mm | - | 55 W/m² | - |
| 1777988390 | 10.56° C | 94% | 1181.5 hPa | 1.78 mm | - | 45 W/m² | - |
| 1777988087 | 10.56° C | 94% | 1181.5 hPa | 1.78 mm | - | 32 W/m² | - |
| 1777987783 | 10.56° C | 94% | 1181.5 hPa | 0 mm | - | 14 W/m² | - |
| 1777987480 | 10.56° C | 94% | 1181.5 hPa | 0 mm | - | 8 W/m² | - |
| 1777987178 | 10.56° C | 93% | 1181.6 hPa | 0 mm | - | 5 W/m² | - |
| 1777986874 | 10.56° C | 93% | 1181.3 hPa | 3.05 mm | - | 3 W/m² | - |
| 1777986572 | 10.56° C | 93% | 1181.2 hPa | 3.05 mm | - | 5 W/m² | - |
| 1777986270 | 10.56° C | 93% | 1181 hPa | 0 mm | - | 2 W/m² | - |
| 1777985967 | 10.56° C | 93% | 1180.9 hPa | 0 mm | - | 3 W/m² | - |
| 1777985664 | 10.56° C | 93% | 1181 hPa | 1.27 mm | - | 4 W/m² | - |
| 1777985361 | 10.56° C | 94% | 1181 hPa | 3.05 mm | - | 4 W/m² | - |
| 1777985058 | 10.56° C | 94% | 1180.9 hPa | 3.56 mm | - | 3 W/m² | - |
| 1777984754 | 10.56° C | 94% | 1181 hPa | 3.05 mm | - | 1 W/m² | - |
* Rain latest hour (hover to see other rain measurements)
** Current wind speed in m/s (hover to see current wind gust speed)